Pagrindinis puslapis
METAR-TAF:

METAR-TAF

Oro uostai :

Mount Carmel Municipal Airport

Mount Carmel, Ilinojus, Jungtinės Amerikos Valstijos

platuma: 38-36-23N, ilguma: 087-43-36W, Aukštis: 131 m

Dabartinis oras

Ataskaita buvo paskelbta 27 minutes, ne 10:15 UTC
Vėjas 12 kt iš Vakarų/Pietvakarių
Temperatūra 1°C
Drėgmė 93%
Slėgis 1014 hPa
Matomumas: 16.1 km
Apsiniaukę ne aukštis 1100 ft

METAR: KAJG 251015Z AUTO 25012KT 10SM OVC011 01/00 A2995 RMK AO2 T00131002

Laikas: 04:42 (10:42 UTC)


TAF: trūkstamas

Orai ataskaitas ir orų prognozės (METAR, TAF).

turimą stotys yra geltonos ir raudonos taškus žemėlapyje.

Perkelti pele per norėdami pamatyti stoties vardą.

Tada spustelėkite, norėdami matyti oro stebėjimo ir prognozės.

Norėdami pakeisti žemėlapį: spustelėkite ant žalios mygtukų su juodo kryžiaus žemyn,; žalią mygtuką su brūkšneliu, jei norite nutolinti; arba žalių rodyklių gretimoms žemėlapius.


METAR-TAF: